Time;durP1;ratioP1;P1;durP2;ratioP2;P2;SDS_P1;SDS_P2;PMS_P1;PMS_P2;Temp;Humidity;BMP_temperature;BMP_pressure;BME280_temperature;BME280_humidity;BME280_pressure;Samples;Min_cycle;Max_cycle;Signal;HPM_P1;HPM_P2
2022/03/07 00:02:05;;;;;;;;;;;5.80;46.70;;;3.78;51.49;102216.31;8267558;28;20012;-82
2022/03/07 00:06:26;;;;;;;;;;;5.80;46.60;;;3.86;51.75;102229.19;8282089;28;20008;-82
2022/03/07 00:10:48;;;;;;;;;;;5.80;46.60;;;3.84;51.75;102236.97;8294998;28;20004;-81
2022/03/07 00:15:10;;;;;;;;;;;5.70;46.70;;;3.76;51.71;102224.06;8274663;28;19985;-81
2022/03/07 00:19:32;;;;;;;;;;;5.80;46.70;;;3.82;51.59;102236.09;8267860;28;19996;-81
2022/03/07 00:23:53;;;;;;;;;;;5.80;46.70;;;3.66;51.55;102201.69;8281885;28;20004;-81
2022/03/07 00:28:16;;;;;;;;;;;5.80;46.70;;;3.82;51.43;102224.91;8276315;28;19995;-81
2022/03/07 00:32:38;;;;;;;;;;;5.80;46.70;;;3.65;51.39;102212.06;8264589;28;20000;-81
2022/03/07 00:36:59;;;;;;;;;;;5.80;46.70;;;3.77;51.60;102224.91;8268978;28;20310;-81
2022/03/07 00:41:21;;;;;;;;;;;5.70;46.70;;;3.61;51.45;102198.25;8288821;28;20354;-81
2022/03/07 00:45:42;;;;;;;;;;;5.70;46.70;;;3.57;51.71;102200.88;8281591;28;20085;-81
2022/03/07 00:50:05;;;;;;;;;;;5.70;46.70;;;3.61;51.74;102216.34;8266824;28;20331;-82
2022/03/07 00:54:26;;;;;;;;;;;5.70;46.70;;;3.67;51.58;102233.56;8290776;28;20356;-81
2022/03/07 00:58:48;;;;;;;;;;;5.40;46.60;;;3.55;51.61;102227.56;8292325;28;20095;-82
2022/03/07 01:03:11;;;;;;;;;;;5.60;46.60;;;3.59;51.55;102241.31;8274397;28;20004;-82
2022/03/07 01:07:32;;;;;;;;;;;5.60;46.60;;;3.28;51.57;102194.03;8280084;28;19917;-83
2022/03/07 01:11:54;;;;;;;;;;;5.50;46.60;;;3.44;51.42;102225.84;8279868;28;20586;-83
2022/03/07 01:16:15;;;;;;;;;;;5.40;46.60;;;3.39;51.57;102222.41;8262240;28;19928;-82
2022/03/07 01:20:37;;;;;;;;;;;5.30;46.50;;;2.66;51.37;102120.97;8293942;28;20031;-83
2022/03/07 01:24:59;;;;;;;;;;;5.30;46.50;;;3.14;51.39;102209.53;8272997;28;20007;-83
2022/03/07 01:29:20;;;;;;;;;;;5.30;46.50;;;3.15;51.34;102218.13;8281276;28;20036;-83
2022/03/07 01:33:42;;;;;;;;;;;5.10;46.50;;;3.04;51.51;102205.22;8261220;28;20008;-84
2022/03/07 01:38:04;;;;;;;;;;;5.10;46.60;;;3.00;51.62;102203.53;8267596;28;20404;-83
2022/03/07 01:42:25;;;;;;;;;;;4.90;46.50;;;2.96;51.73;102209.53;8263398;28;20004;-83
2022/03/07 01:46:47;;;;;;;;;;;4.90;46.60;;;3.02;51.48;102223.28;8267443;28;19922;-83
2022/03/07 01:51:11;;;;;;;;;;;4.90;46.60;;;2.54;51.58;102152.78;8275920;28;20012;-83
2022/03/07 01:55:33;;;;;;;;;;;4.90;46.70;;;2.75;51.70;102184.56;8267405;28;20378;-83
2022/03/07 01:59:57;;;;;;;;;;;4.80;46.60;;;2.74;51.38;102188.03;8262699;28;20004;-83
2022/03/07 02:04:19;;;;;;;;;;;4.70;46.60;;;2.78;51.73;102200.03;8281304;28;20347;-83
2022/03/07 02:08:41;;;;;;;;;;;4.70;46.60;;;2.77;51.65;102195.75;8266560;28;20446;-83
2022/03/07 02:13:13;;;;;;;;;;;4.70;46.70;;;2.64;51.44;102190.56;8267689;28;20089;-83
2022/03/07 02:17:36;;;;;;;;;;;4.60;46.60;;;2.64;51.72;102185.41;8264682;28;19973;-83
2022/03/07 02:22:03;;;;;;;;;;;4.60;46.70;;;2.63;51.56;102193.16;8266558;28;20025;-83
2022/03/07 02:26:35;;;;;;;;;;;4.60;46.70;;;2.54;51.55;102182.81;8257775;28;19948;-83
2022/03/07 02:30:58;;;;;;;;;;;4.40;46.60;;;2.34;51.52;102157.03;8292538;28;20004;-83
2022/03/07 02:35:20;;;;;;;;;;;4.40;46.70;;;2.26;51.44;102140.69;8297139;28;20283;-83
2022/03/07 02:39:42;;;;;;;;;;;4.40;46.70;;;2.34;51.36;102170.75;8303192;28;20008;-83
2022/03/07 02:44:04;;;;;;;;;;;4.40;46.70;;;2.45;51.74;102178.53;8272026;28;19992;-82
2022/03/07 02:48:26;;;;;;;;;;;4.40;46.70;;;2.37;51.49;102178.50;8262423;28;19917;-82
2022/03/07 02:52:47;;;;;;;;;;;4.30;46.70;;;2.29;51.73;102163.88;8272553;28;20017;-83
2022/03/07 02:57:09;;;;;;;;;;;4.40;46.70;;;2.24;51.32;102170.72;8298436;28;19921;-83
2022/03/07 03:01:30;;;;;;;;;;;4.20;46.60;;;2.15;51.38;102164.69;8272303;28;20370;-83
2022/03/07 03:05:54;;;;;;;;;;;4.20;46.70;;;2.20;51.20;102183.63;8271388;28;20021;-83
2022/03/07 03:10:15;;;;;;;;;;;4.20;46.70;;;2.24;51.56;102193.94;8274070;28;19924;-83
2022/03/07 03:14:39;;;;;;;;;;;4.10;46.70;;;2.06;51.57;102169.84;8270441;28;19921;-83
2022/03/07 03:19:00;;;;;;;;;;;4.10;46.70;;;2.03;51.61;102164.69;8270566;28;20024;-83
2022/03/07 03:23:22;;;;;;;;;;;4.10;46.70;;;2.08;51.41;102175.88;8270481;28;19992;-83
2022/03/07 03:27:44;;;;;;;;;;;4.10;46.70;;;2.01;51.80;102161.22;8269921;28;20388;-83
2022/03/07 03:32:06;;;;;;;;;;;4.00;46.70;;;1.90;51.42;102147.47;8289563;28;20008;-83
2022/03/07 03:36:27;;;;;;;;;;;4.00;46.70;;;1.86;51.85;102144.00;8284873;28;19928;-82
2022/03/07 03:40:49;;;;;;;;;;;3.90;46.70;;;1.92;51.86;102163.78;8283703;28;19985;-83
2022/03/07 03:45:11;;;;;;;;;;;3.90;46.70;;;1.94;51.44;102170.63;8265627;28;20430;-83
2022/03/07 03:49:33;;;;;;;;;;;3.90;46.80;;;1.94;51.83;102164.63;8297074;28;19992;-83
2022/03/07 03:53:55;;;;;;;;;;;3.80;46.80;;;1.89;52.08;102167.22;8280670;28;20430;-83
2022/03/07 03:58:16;;;;;;;;;;;3.90;46.90;;;1.94;51.62;102178.38;8296669;28;20031;-82
2022/03/07 04:02:39;;;;;;;;;;;3.90;46.90;;;1.84;51.84;102162.91;8296115;28;20004;-82
2022/03/07 04:07:00;;;;;;;;;;;3.90;46.90;;;1.82;51.92;102156.88;8265998;28;20017;-82
2022/03/07 04:11:22;;;;;;;;;;;3.70;46.80;;;1.93;51.86;102175.78;8282267;28;20012;-82
2022/03/07 04:15:43;;;;;;;;;;;3.90;46.90;;;1.82;51.84;102156.88;8281891;28;19928;-82
2022/03/07 04:20:06;;;;;;;;;;;3.90;46.90;;;1.77;51.99;102149.97;8268242;28;20012;-82
2022/03/07 04:24:30;;;;;;;;;;;3.90;46.90;;;1.97;52.00;102180.09;8297189;28;20012;-82
2022/03/07 04:28:51;;;;;;;;;;;3.90;46.90;;;1.87;51.84;102174.06;8264203;28;20016;-82
2022/03/07 04:33:13;;;;;;;;;;;3.90;46.90;;;1.87;51.47;102168.06;8268566;28;20008;-83
2022/03/07 04:37:35;;;;;;;;;;;3.80;46.90;;;1.87;51.62;102175.78;8264575;28;19927;-83
2022/03/07 04:41:56;;;;;;;;;;;3.90;46.90;;;1.84;51.86;102178.34;8260217;28;20454;-83
2022/03/07 04:46:18;;;;;;;;;;;4.10;47.00;;;1.84;51.86;102186.06;8262849;28;20021;-83
2022/03/07 04:50:42;;;;;;;;;;;3.90;46.90;;;1.83;51.94;102182.59;8266994;28;20016;-82
2022/03/07 04:55:05;;;;;;;;;;;3.90;47.00;;;1.94;51.82;102198.13;8280695;28;19925;-82
2022/03/07 04:59:26;;;;;;;;;;;3.90;47.00;;;1.77;52.00;102173.16;8275903;28;19992;-83
2022/03/07 05:03:48;;;;;;;;;;;3.90;47.00;;;1.83;51.76;102182.59;8267385;28;20012;-83
2022/03/07 05:08:09;;;;;;;;;;;3.90;47.00;;;1.69;51.70;102168.81;8261208;28;19921;-83
2022/03/07 05:12:31;;;;;;;;;;;3.90;47.00;;;1.83;51.69;102192.06;8267088;28;20008;-83
2022/03/07 05:16:52;;;;;;;;;;;3.90;47.00;;;1.77;51.96;102192.88;8265997;28;19941;-82
2022/03/07 05:21:14;;;;;;;;;;;3.70;46.90;;;1.79;51.82;102193.78;8255924;28;19972;-82
2022/03/07 05:25:35;;;;;;;;;;;3.80;47.00;;;1.70;51.71;102189.44;8277852;28;19917;-82
2022/03/07 05:29:57;;;;;;;;;;;3.80;47.00;;;1.73;51.95;102204.03;8291887;28;19921;-82
2022/03/07 05:34:18;;;;;;;;;;;3.80;47.00;;;1.49;51.79;102164.44;8264161;28;20004;-83
2022/03/07 05:38:40;;;;;;;;;;;3.80;47.00;;;1.68;52.23;102198.88;8294185;28;20016;-82
2022/03/07 05:43:02;;;;;;;;;;;3.70;47.00;;;1.60;52.03;102190.25;8261653;28;20390;-82
2022/03/07 05:47:23;;;;;;;;;;;3.70;47.00;;;1.54;51.72;102185.91;8287883;28;20028;-82
2022/03/07 05:51:46;;;;;;;;;;;3.60;47.00;;;1.74;52.05;102222.06;8274501;28;20004;-81
2022/03/07 05:56:07;;;;;;;;;;;3.40;46.90;;;1.67;51.99;102212.56;8256262;28;19928;-82
2022/03/07 06:00:29;;;;;;;;;;;3.70;47.10;;;1.67;52.11;102204.84;8272674;28;19927;-82
2022/03/07 06:04:52;;;;;;;;;;;3.70;47.10;;;1.44;52.04;102168.69;8305085;28;20004;-81
2022/03/07 06:09:13;;;;;;;;;;;3.70;47.20;;;1.58;51.88;102185.94;8276852;28;19917;-81
2022/03/07 06:13:35;;;;;;;;;;;3.70;47.20;;;1.69;51.99;102204.88;8267473;28;20000;-81
2022/03/07 06:17:58;;;;;;;;;;;3.60;47.20;;;1.58;52.28;102184.22;8269605;28;19925;-81
2022/03/07 06:22:19;;;;;;;;;;;3.70;47.20;;;1.72;51.75;102216.03;8293228;28;19917;-81
2022/03/07 06:26:41;;;;;;;;;;;3.70;47.30;;;1.73;52.13;102211.78;8288009;28;19996;-81
2022/03/07 06:31:02;;;;;;;;;;;3.70;47.30;;;1.68;52.37;102204.00;8283214;28;19918;-81
2022/03/07 06:35:24;;;;;;;;;;;3.70;47.30;;;1.76;52.33;102222.94;8277169;28;19921;-81
2022/03/07 06:39:46;;;;;;;;;;;3.60;47.20;;;1.72;52.31;102212.59;8277827;28;20075;-82
2022/03/07 06:44:07;;;;;;;;;;;3.70;47.40;;;1.76;52.09;102222.94;8260461;28;20076;-81
2022/03/07 06:48:29;;;;;;;;;;;3.90;47.50;;;1.79;52.12;102221.25;8296493;28;20011;-82
2022/03/07 06:52:53;;;;;;;;;;;3.80;47.50;;;1.81;52.49;102206.63;8288888;28;19928;-82
2022/03/07 06:57:15;;;;;;;;;;;3.90;47.70;;;1.94;52.20;102219.56;8278973;28;19928;-81
2022/03/07 07:01:37;;;;;;;;;;;3.90;47.80;;;1.49;52.10;102132.69;8289396;28;19996;-81
2022/03/07 07:05:58;;;;;;;;;;;3.80;47.90;;;2.02;52.11;102214.47;8292908;28;19917;-81
2022/03/07 07:10:20;;;;;;;;;;;4.10;48.00;;;2.08;52.35;102204.22;8270063;28;20008;-81
2022/03/07 07:14:41;;;;;;;;;;;4.10;48.10;;;2.18;52.71;102208.50;8282781;28;20004;-81
2022/03/07 07:19:03;;;;;;;;;;;4.20;48.30;;;2.32;52.37;102224.06;8280090;28;20016;-81
2022/03/07 07:23:24;;;;;;;;;;;4.30;48.30;;;2.34;52.61;102211.16;8294258;28;19921;-80
2022/03/07 07:27:46;;;;;;;;;;;4.40;48.40;;;2.54;52.57;102227.53;8280434;28;20020;-86
2022/03/07 07:32:08;;;;;;;;;;;4.50;48.40;;;2.62;52.76;102231.00;8266434;28;19944;-82
2022/03/07 07:36:29;;;;;;;;;;;4.60;48.50;;;2.57;52.51;102216.38;8279762;28;19928;-80
2022/03/07 07:40:51;;;;;;;;;;;4.70;48.60;;;2.57;52.33;102201.75;8266018;28;19936;-83
2022/03/07 07:45:13;;;;;;;;;;;4.80;48.50;;;2.77;52.55;102213.81;8266135;28;19924;-81
2022/03/07 07:49:34;;;;;;;;;;;4.60;48.40;;;2.83;52.50;102216.41;8264949;28;20393;-80
2022/03/07 07:53:56;;;;;;;;;;;4.90;48.80;;;2.98;52.70;102226.72;8266363;28;20008;-80
2022/03/07 07:58:17;;;;;;;;;;;5.40;49.30;;;3.03;52.58;102206.09;8293095;28;19936;-80
2022/03/07 08:02:39;;;;;;;;;;;5.40;49.20;;;3.23;52.87;102211.25;8264339;28;19985;-81
2022/03/07 08:07:01;;;;;;;;;;;5.20;49.50;;;3.45;53.05;102223.25;8260702;28;20431;-81
2022/03/07 08:11:23;;;;;;;;;;;5.40;49.50;;;3.65;53.21;102210.31;8274618;28;19925;-81
2022/03/07 08:15:45;;;;;;;;;;;5.60;50.10;;;3.95;53.26;102240.38;8260206;28;19931;-81
2022/03/07 08:20:07;;;;;;;;;;;5.80;49.80;;;4.05;53.10;102209.31;8280516;28;20556;-82
2022/03/07 08:24:29;;;;;;;;;;;6.10;50.00;;;4.41;53.03;102226.41;8286053;28;20005;-81
2022/03/07 08:28:50;;;;;;;;;;;6.30;49.90;;;4.68;53.43;102233.13;8271510;28;20008;-81
2022/03/07 08:33:12;;;;;;;;;;;6.50;49.90;;;4.45;53.61;102155.66;8264568;28;19921;-81
2022/03/07 08:37:34;;;;;;;;;;;6.80;50.10;;;5.22;53.64;102231.00;8297400;28;20400;-82
2022/03/07 08:41:55;;;;;;;;;;;7.10;50.00;;;5.20;53.73;102173.16;8279182;28;19928;-84
2022/03/07 08:46:17;;;;;;;;;;;7.40;50.10;;;5.53;53.29;102192.69;8288596;28;20643;-84
2022/03/07 08:50:38;;;;;;;;;;;7.70;50.00;;;5.81;53.29;102199.31;8253834;28;20428;-84
2022/03/07 08:55:00;;;;;;;;;;;8.20;50.00;;;6.08;53.43;102206.81;8256668;28;19928;-84
2022/03/07 08:59:24;;;;;;;;;;;8.20;49.70;;;6.25;53.78;102195.34;8266371;28;19925;-84
2022/03/07 09:03:46;;;;;;;;;;;8.40;49.60;;;6.64;53.29;102219.84;8259792;28;19921;-82
2022/03/07 09:08:11;;;;;;;;;;;8.60;49.40;;;6.85;53.25;102213.50;8256439;28;19927;-83
2022/03/07 09:12:36;;;;;;;;;;;8.90;49.30;;;7.00;53.52;102202.00;8257054;28;19922;-82
2022/03/07 09:16:57;;;;;;;;;;;9.40;48.80;;;7.06;53.62;102186.31;8260506;28;19925;-83
2022/03/07 09:21:19;;;;;;;;;;;9.30;48.60;;;7.44;53.15;102213.38;8257894;28;20406;-83
2022/03/07 09:25:41;;;;;;;;;;;9.50;48.60;;;7.47;53.27;102189.91;8265786;28;20322;-83
2022/03/07 09:30:06;;;;;;;;;;;9.50;48.00;;;7.69;53.35;102204.22;8264538;28;19921;-83
2022/03/07 09:34:28;;;;;;;;;;;9.80;48.00;;;7.96;53.17;102223.63;8250653;28;19922;-82
2022/03/07 09:38:50;;;;;;;;;;;10.00;48.00;;;7.90;52.83;102187.34;8276435;28;19926;-82
2022/03/07 09:43:13;;;;;;;;;;;10.10;47.70;;;8.13;53.10;102201.63;8259195;28;19937;-84
2022/03/07 09:47:39;;;;;;;;;;;10.30;45.90;;;8.19;52.84;102201.50;8289227;28;19921;-82
2022/03/07 09:52:00;;;;;;;;;;;10.40;47.00;;;8.46;52.62;102226.09;8254628;28;19921;-84
2022/03/07 09:56:22;;;;;;;;;;;10.50;46.70;;;8.34;52.61;102187.25;8276235;28;19936;-85
2022/03/07 10:00:44;;;;;;;;;;;10.60;46.50;;;8.68;52.48;102223.84;8254623;28;20398;-84
2022/03/07 10:05:06;;;;;;;;;;;10.70;46.50;;;8.69;52.03;102207.31;8274804;28;19925;-83
2022/03/07 10:09:27;;;;;;;;;;;10.80;46.00;;;8.81;52.57;102220.06;8262937;28;19954;-86
2022/03/07 10:13:52;;;;;;;;;;;10.90;45.40;;;8.71;52.01;102192.53;8248479;28;19922;-83
2022/03/07 10:18:17;;;;;;;;;;;10.80;44.80;;;8.90;52.20;102211.16;8248339;28;19929;-85
2022/03/07 10:22:50;;;;;;;;;;;11.00;44.90;;;9.03;52.05;102209.13;8262328;28;19922;-83
2022/03/07 10:27:24;;;;;;;;;;;11.10;46.10;;;9.08;52.44;102205.50;8261786;28;19927;-83
2022/03/07 10:31:47;;;;;;;;;;;11.20;46.00;;;9.20;52.19;102212.16;8258816;28;19921;-84
2022/03/07 10:36:09;;;;;;;;;;;11.30;45.80;;;9.23;52.26;102196.44;8270134;28;19927;-84
2022/03/07 10:40:32;;;;;;;;;;;11.40;46.10;;;9.44;51.94;102202.00;8276913;28;20084;-87
2022/03/07 10:45:01;;;;;;;;;;;11.50;44.70;;;9.58;52.03;102219.88;8283237;28;20008;-86
2022/03/07 10:49:26;;;;;;;;;;;11.50;45.00;;;9.56;51.83;102199.06;8272615;28;20015;-83
2022/03/07 10:53:48;;;;;;;;;;;11.70;44.30;;;9.70;51.86;102211.72;8296593;28;20016;-83
2022/03/07 10:58:13;;;;;;;;;;;11.80;45.60;;;9.77;51.52;102212.41;8269524;28;19925;-83
2022/03/07 11:02:40;;;;;;;;;;;11.70;44.50;;;9.85;51.50;102211.28;8281063;28;19917;-83
2022/03/07 11:07:02;;;;;;;;;;;11.90;45.10;;;9.90;51.74;102205.94;8270909;28;20024;-83
2022/03/07 11:11:23;;;;;;;;;;;11.90;44.70;;;10.04;51.56;102195.09;8269523;28;19925;-82
2022/03/07 11:15:46;;;;;;;;;;;12.00;44.10;;;10.11;51.41;102197.50;8281336;28;20282;-83
2022/03/07 11:20:10;;;;;;;;;;;12.10;42.80;;;10.25;51.03;102204.06;8271019;28;19985;-90
2022/03/07 11:24:35;;;;;;;;;;;12.20;43.60;;;10.37;51.24;102207.19;8281113;28;20406;-83
2022/03/07 11:28:58;;;;;;;;;;;12.30;43.20;;;10.33;50.99;102192.50;8266771;28;20385;-87
2022/03/07 11:33:27;;;;;;;;;;;12.30;43.50;;;10.53;51.37;102210.19;8290488;28;20004;-85
2022/03/07 11:37:48;;;;;;;;;;;12.40;41.30;;;10.56;50.81;102210.09;8272799;28;20019;-86
2022/03/07 11:42:18;;;;;;;;;;;12.40;43.70;;;10.54;50.73;102185.78;8286178;28;20008;-84
2022/03/07 11:46:42;;;;;;;;;;;12.50;43.80;;;10.56;50.79;102173.53;8302201;28;20552;-86
2022/03/07 11:51:14;;;;;;;;;;;12.50;44.20;;;10.61;50.97;102175.97;8275402;28;20015;-86
2022/03/07 11:55:48;;;;;;;;;;;12.60;43.50;;;10.77;51.15;102185.00;8269624;28;20107;-86
2022/03/07 12:00:20;;;;;;;;;;;12.70;43.30;;;10.85;50.89;102182.16;8269163;28;20009;-87
2022/03/07 12:04:44;;;;;;;;;;;12.70;41.60;;;10.57;50.74;102122.13;8269954;28;20401;-86
2022/03/07 12:09:07;;;;;;;;;;;12.70;42.20;;;10.52;50.31;102106.59;8267453;28;19927;-84
2022/03/07 12:13:35;;;;;;;;;;;12.70;41.30;;;10.86;50.47;102162.97;8277255;28;20013;-85
2022/03/07 12:17:57;;;;;;;;;;;12.80;41.10;;;10.83;50.41;102153.47;8267839;28;19928;-84
2022/03/07 12:22:20;;;;;;;;;;;12.80;42.60;;;10.90;50.12;102151.50;8270924;28;20020;-85
2022/03/07 12:26:53;;;;;;;;;;;12.80;43.00;;;11.03;50.27;102168.47;8234243;28;19929;-85
2022/03/07 12:31:14;;;;;;;;;;;12.90;44.00;;;11.07;49.73;102164.88;8187428;28;20430;-87
2022/03/07 12:35:36;;;;;;;;;;;12.90;42.90;;;11.12;50.29;102148.16;8187314;28;19927;-84
2022/03/07 12:40:06;;;;;;;;;;;13.00;42.10;;;11.13;50.30;102162.97;8187880;28;19918;-83
2022/03/07 12:44:29;;;;;;;;;;;13.00;38.00;;;11.05;49.68;102129.22;8197804;28;20013;-83
2022/03/07 12:48:53;;;;;;;;;;;12.90;39.00;;;11.02;49.99;102111.88;8196465;28;19918;-84
2022/03/07 12:53:14;;;;;;;;;;;13.20;41.30;;;10.70;49.30;102057.28;8196940;29;19924;-84
2022/03/07 12:57:36;;;;;;;;;;;12.90;41.90;;;11.12;49.83;102116.78;8199519;28;19922;-84
2022/03/07 13:01:58;;;;;;;;;;;12.90;42.00;;;11.21;49.63;102122.56;8196572;29;20456;-83
2022/03/07 13:06:20;;;;;;;;;;;13.00;41.00;;;11.15;49.46;102098.38;8189217;28;21724;-83
2022/03/07 13:10:49;;;;;;;;;;;13.00;42.30;;;11.16;49.40;102090.50;8194838;28;19926;-85
2022/03/07 13:15:11;;;;;;;;;;;13.10;42.40;;;10.81;49.52;102023.78;8187397;28;19919;-85
2022/03/07 13:19:32;;;;;;;;;;;12.90;40.90;;;10.82;49.38;102015.88;8170959;28;19930;-87
2022/03/07 13:23:54;;;;;;;;;;;13.00;41.80;;;10.84;49.41;102016.69;8186961;28;19937;-84
2022/03/07 13:28:29;;;;;;;;;;;13.10;40.00;;;11.23;49.63;102078.91;8174905;28;19922;-85
2022/03/07 13:33:01;;;;;;;;;;;13.00;40.80;;;11.23;49.03;102085.88;8189424;28;19923;-86
2022/03/07 13:37:24;;;;;;;;;;;13.00;41.20;;;10.80;49.38;102009.00;8184009;28;20380;-85
2022/03/07 13:42:13;;;;;;;;;;;12.80;40.10;;;11.17;48.93;102076.50;8184486;29;19926;-85
2022/03/07 13:46:34;;;;;;;;;;;13.00;41.30;;;11.07;49.15;102051.56;8199318;28;19929;-86
2022/03/07 13:50:56;;;;;;;;;;;12.90;40.80;;;10.99;49.04;102032.72;8185076;29;19929;-85
2022/03/07 13:55:19;;;;;;;;;;;12.90;41.60;;;11.19;49.24;102058.16;8184002;28;19926;-84
2022/03/07 13:59:55;;;;;;;;;;;12.90;39.60;;;11.06;49.11;102037.66;8175068;28;19930;-85
2022/03/07 14:04:17;;;;;;;;;;;12.90;41.30;;;11.15;48.80;102046.97;8188502;28;19929;-85
2022/03/07 14:08:41;;;;;;;;;;;12.90;42.10;;;11.26;48.79;102059.59;8185446;28;19922;-85
2022/03/07 14:13:03;;;;;;;;;;;12.90;41.10;;;11.22;48.97;102053.66;8188011;28;19927;-85
2022/03/07 14:17:25;;;;;;;;;;;12.90;40.40;;;11.27;48.58;102051.72;8169058;28;20323;-85
2022/03/07 14:21:46;;;;;;;;;;;13.00;41.30;;;11.31;48.81;102049.84;8174960;28;20248;-87
2022/03/07 14:26:08;;;;;;;;;;;13.00;40.90;;;11.29;48.85;102044.69;8173788;28;19923;-85
2022/03/07 14:30:30;;;;;;;;;;;13.00;40.80;;;11.20;48.32;102025.84;8184306;28;19922;-85
2022/03/07 14:34:55;;;;;;;;;;;13.20;41.20;;;11.26;48.62;102028.22;8196609;28;19938;-86
2022/03/07 14:39:16;;;;;;;;;;;13.00;40.70;;;11.08;48.24;102004.47;8191333;28;19926;-85
2022/03/07 14:43:38;;;;;;;;;;;13.00;40.80;;;11.32;48.81;102048.94;8190800;28;19922;-85
2022/03/07 14:48:03;;;;;;;;;;;13.00;40.40;;;11.30;48.47;102041.16;8193454;28;19929;-84
2022/03/07 14:52:24;;;;;;;;;;;13.10;41.90;;;11.35;48.44;102051.44;8195640;28;19922;-84
2022/03/07 14:56:46;;;;;;;;;;;13.00;40.50;;;11.19;48.48;102025.00;8194366;28;19926;-84
2022/03/07 15:01:08;;;;;;;;;;;13.00;41.00;;;11.19;48.22;102026.78;8188942;28;19928;-84
2022/03/07 15:05:30;;;;;;;;;;;13.00;40.60;;;11.09;48.58;102010.56;8194374;28;19922;-85
2022/03/07 15:09:51;;;;;;;;;;;13.00;40.00;;;11.18;48.43;102028.53;8193219;28;19929;-84
2022/03/07 15:14:15;;;;;;;;;;;12.90;37.90;;;10.94;48.07;101991.06;8192748;28;19926;-84
2022/03/07 15:18:36;;;;;;;;;;;12.90;40.10;;;11.10;48.20;102017.50;8188446;28;19930;-83
2022/03/07 15:22:58;;;;;;;;;;;13.00;41.40;;;11.19;48.43;102048.53;8184586;28;19924;-84
2022/03/07 15:27:20;;;;;;;;;;;12.90;40.80;;;11.08;48.38;102040.22;8198345;28;19922;-84
2022/03/07 15:31:43;;;;;;;;;;;12.80;41.10;;;10.96;48.25;102031.06;8193253;28;19918;-84
2022/03/07 15:36:05;;;;;;;;;;;12.80;41.80;;;11.05;48.55;102032.50;8189363;28;19931;-83
2022/03/07 15:40:26;;;;;;;;;;;12.90;41.30;;;11.04;48.29;102039.50;8181146;28;19998;-84
2022/03/07 15:44:48;;;;;;;;;;;12.80;39.70;;;11.03;47.86;102045.63;8200125;28;20588;-84
2022/03/07 15:49:10;;;;;;;;;;;12.70;40.60;;;10.86;47.91;102014.03;8192813;28;19919;-84
2022/03/07 15:53:31;;;;;;;;;;;12.60;41.10;;;11.05;47.99;102046.44;8198373;28;20005;-84
2022/03/07 15:57:54;;;;;;;;;;;12.70;41.30;;;11.05;48.22;102050.81;8198748;29;19932;-83
2022/03/07 16:02:16;;;;;;;;;;;12.70;42.10;;;10.90;48.06;102026.06;8197924;28;20017;-85
2022/03/07 16:06:37;;;;;;;;;;;12.70;42.20;;;10.81;48.22;102018.56;8198282;28;19923;-85
2022/03/07 16:11:01;;;;;;;;;;;12.60;42.50;;;10.49;47.92;101970.03;8194401;28;20451;-84
2022/03/07 16:15:23;;;;;;;;;;;12.60;41.10;;;10.89;48.22;102034.81;8187808;28;19918;-83
2022/03/07 16:19:45;;;;;;;;;;;12.60;41.00;;;10.91;48.13;102047.81;8196588;28;19922;-83
2022/03/07 16:24:06;;;;;;;;;;;12.50;41.80;;;10.88;48.19;102046.16;8198774;28;19919;-83
2022/03/07 16:28:28;;;;;;;;;;;12.60;42.20;;;10.66;48.22;102019.09;8196415;28;20034;-82
2022/03/07 16:32:51;;;;;;;;;;;12.50;42.30;;;10.63;47.60;102023.50;8187197;28;20587;-84
2022/03/07 16:37:13;;;;;;;;;;;12.50;42.30;;;10.69;47.95;102042.47;8195979;28;19923;-83
2022/03/07 16:41:35;;;;;;;;;;;12.40;42.00;;;10.57;47.74;102028.94;8197809;28;19918;-84
2022/03/07 16:45:56;;;;;;;;;;;12.40;43.00;;;10.63;48.04;102054.84;8195250;29;20009;-84
2022/03/07 16:50:18;;;;;;;;;;;12.30;43.00;;;10.57;48.36;102055.06;8183919;28;19927;-83
2022/03/07 16:54:39;;;;;;;;;;;12.30;43.20;;;10.56;47.77;102055.97;8194903;28;19929;-84
2022/03/07 16:59:01;;;;;;;;;;;12.10;43.20;;;10.37;47.90;102045.28;8181508;28;19945;-83
2022/03/07 17:03:28;;;;;;;;;;;12.10;43.40;;;10.45;47.94;102065.06;8179022;28;19922;-83
2022/03/07 17:07:50;;;;;;;;;;;12.20;43.40;;;10.19;48.15;102038.88;8171957;28;19922;-83
2022/03/07 17:12:12;;;;;;;;;;;12.10;43.40;;;10.29;47.92;102069.91;8185914;28;19928;-84
2022/03/07 17:16:35;;;;;;;;;;;11.90;43.50;;;10.23;47.56;102083.16;8186190;28;21529;-84
2022/03/07 17:20:59;;;;;;;;;;;11.90;43.40;;;9.97;47.95;102066.56;8180087;28;19934;-84
2022/03/07 17:25:21;;;;;;;;;;;11.80;43.60;;;10.02;47.82;102096.00;8174098;28;19923;-83
2022/03/07 17:29:43;;;;;;;;;;;11.70;44.00;;;9.78;47.64;102068.03;8187665;28;19926;-82
2022/03/07 17:34:05;;;;;;;;;;;11.60;43.60;;;9.85;47.82;102106.06;8174744;28;20307;-83
2022/03/07 17:38:26;;;;;;;;;;;11.50;43.70;;;9.78;48.19;102115.00;8189997;28;19944;-83
2022/03/07 17:42:48;;;;;;;;;;;11.40;43.80;;;9.69;48.14;102116.97;8189525;28;19927;-83
2022/03/07 17:47:12;;;;;;;;;;;11.30;43.80;;;9.46;47.93;102093.31;8187144;28;20414;-85
2022/03/07 17:51:34;;;;;;;;;;;11.20;43.90;;;9.47;48.08;102119.31;8187684;29;19932;-84
2022/03/07 17:55:59;;;;;;;;;;;11.10;43.90;;;9.40;47.92;102122.16;8186781;28;20006;-84
2022/03/07 18:00:43;;;;;;;;;;;11.00;43.90;;;9.31;47.81;102118.88;8166936;29;19933;-84
2022/03/07 18:05:05;;;;;;;;;;;10.90;44.00;;;8.91;47.83;102064.41;8191034;28;19990;-85
2022/03/07 18:09:27;;;;;;;;;;;10.80;44.00;;;9.08;47.82;102116.91;8194110;28;19926;-84
2022/03/07 18:13:50;;;;;;;;;;;10.60;44.00;;;8.93;47.84;102109.50;8193430;28;20286;-85
2022/03/07 18:18:12;;;;;;;;;;;10.60;44.10;;;8.94;47.85;102120.75;8192944;28;20704;-89
2022/03/07 18:22:33;;;;;;;;;;;10.50;44.10;;;8.74;48.11;102103.91;8187472;28;19927;-85
2022/03/07 18:26:55;;;;;;;;;;;10.50;44.20;;;8.54;48.41;102091.38;8189179;28;19922;-86
2022/03/07 18:31:16;;;;;;;;;;;10.30;44.10;;;8.52;47.98;102105.34;8189829;28;19922;-85
2022/03/07 18:35:38;;;;;;;;;;;10.20;44.10;;;8.43;48.15;102101.22;8193084;28;19929;-86
2022/03/07 18:40:00;;;;;;;;;;;10.20;44.10;;;8.45;48.25;102129.78;8189636;28;19918;-85
2022/03/07 18:44:22;;;;;;;;;;;10.00;44.10;;;8.24;48.24;102113.78;8190787;28;19927;-85
2022/03/07 18:48:43;;;;;;;;;;;10.00;44.10;;;8.01;48.15;102097.81;8192768;28;19929;-85
2022/03/07 18:53:05;;;;;;;;;;;9.90;44.20;;;8.09;47.93;102137.53;8189089;28;20406;-85
2022/03/07 18:57:27;;;;;;;;;;;9.70;44.10;;;7.46;48.12;102053.91;8190325;28;19922;-85
2022/03/07 19:01:48;;;;;;;;;;;9.60;44.20;;;7.79;47.76;102134.69;8190761;28;19934;-85
2022/03/07 19:06:10;;;;;;;;;;;9.50;44.20;;;7.78;48.04;102150.31;8191639;28;19923;-85
2022/03/07 19:10:31;;;;;;;;;;;9.40;44.10;;;7.63;48.31;102156.69;8191157;28;19923;-85
2022/03/07 19:14:54;;;;;;;;;;;9.20;44.10;;;7.46;48.25;102144.88;8197984;28;19944;-86
2022/03/07 19:19:15;;;;;;;;;;;9.10;44.20;;;7.41;48.00;102153.66;8187593;28;19929;-85
2022/03/07 19:23:37;;;;;;;;;;;9.00;44.20;;;7.41;48.33;102174.44;8186868;28;19931;-85
2022/03/07 19:27:58;;;;;;;;;;;9.00;44.30;;;7.20;47.94;102152.31;8188895;28;19923;-85
2022/03/07 19:32:23;;;;;;;;;;;8.90;44.40;;;7.28;48.50;102179.84;8189509;29;20552;-88
2022/03/07 19:36:52;;;;;;;;;;;8.80;44.40;;;7.22;48.02;102181.72;8189724;28;19929;-86
2022/03/07 19:41:14;;;;;;;;;;;8.60;44.40;;;7.16;48.15;102176.63;8175304;28;20538;-85
2022/03/07 19:45:38;;;;;;;;;;;8.70;44.40;;;7.01;48.53;102162.16;8187346;28;20379;-85
2022/03/07 19:49:59;;;;;;;;;;;8.70;44.40;;;7.00;48.23;102176.03;8185921;29;19926;-84
2022/03/07 19:54:21;;;;;;;;;;;8.60;44.50;;;7.04;48.07;102203.66;8193438;28;19928;-85
2022/03/07 19:58:43;;;;;;;;;;;8.60;44.40;;;6.95;48.74;102194.28;8195769;28;19919;-85
2022/03/07 20:03:04;;;;;;;;;;;8.50;44.50;;;6.93;48.26;102208.19;8195499;28;20430;-85
2022/03/07 20:07:26;;;;;;;;;;;8.50;44.50;;;6.78;48.40;102206.69;8192722;28;20418;-86
2022/03/07 20:11:50;;;;;;;;;;;8.50;44.50;;;6.69;48.21;102215.47;8194172;28;20404;-86